Time;durP1;ratioP1;P1;durP2;ratioP2;P2;SDS_P1;SDS_P2;PMS_P1;PMS_P2;Temp;Humidity;BMP_temperature;BMP_pressure;BME280_temperature;BME280_humidity;BME280_pressure;Samples;Min_cycle;Max_cycle;Signal;HPM_P1;HPM_P2
2021/01/15 00:02:19;;;;;;;13.03;7.23;;;4.60;99.90;;;;;;5076059;28;20197;-69
2021/01/15 00:04:44;;;;;;;10.37;7.20;;;4.50;99.90;;;;;;5076427;28;20425;-69
2021/01/15 00:07:10;;;;;;;13.27;9.33;;;4.50;99.90;;;;;;5076236;28;20225;-69
2021/01/15 00:09:35;;;;;;;8.60;7.70;;;4.50;99.90;;;;;;5076261;28;20181;-69
2021/01/15 00:12:01;;;;;;;12.10;7.33;;;4.50;99.90;;;;;;5076209;28;20208;-69
2021/01/15 00:17:48;;;;;;;9.33;6.87;;;4.40;99.90;;;;;;5075896;28;20167;-69
2021/01/15 00:20:14;;;;;;;10.70;7.53;;;4.40;99.90;;;;;;5076132;28;20427;-68
2021/01/15 00:22:43;;;;;;;11.03;7.57;;;4.40;99.90;;;;;;5076001;28;20556;-68
2021/01/15 00:25:10;;;;;;;12.03;7.40;;;4.40;99.90;;;;;;5075724;28;20181;-68
2021/01/15 00:27:37;;;;;;;10.57;7.73;;;4.50;99.90;;;;;;5075872;28;20466;-69
2021/01/15 00:30:05;;;;;;;12.27;8.23;;;4.40;99.90;;;;;;5075621;28;20467;-68
2021/01/15 00:32:30;;;;;;;10.43;7.80;;;4.50;99.90;;;;;;5075495;28;20408;-69
2021/01/15 00:34:56;;;;;;;10.87;6.47;;;4.50;99.90;;;;;;5075824;28;20425;-69
2021/01/15 00:37:21;;;;;;;9.20;7.13;;;4.40;99.90;;;;;;5075756;28;20170;-68
2021/01/15 00:39:47;;;;;;;10.20;7.73;;;4.40;99.90;;;;;;5075945;28;20201;-68
2021/01/15 00:42:12;;;;;;;7.90;6.53;;;4.40;99.90;;;;;;5075608;28;20535;-68
2021/01/15 00:44:38;;;;;;;8.43;7.53;;;4.40;99.90;;;;;;5075658;28;20186;-68
2021/01/15 00:47:03;;;;;;;8.50;6.33;;;4.40;99.90;;;;;;5075770;28;20523;-68
2021/01/15 00:49:29;;;;;;;10.87;7.33;;;4.40;99.90;;;;;;5075569;28;20595;-68
2021/01/15 00:51:55;;;;;;;14.60;6.87;;;4.50;99.90;;;;;;5075467;28;20178;-68
2021/01/15 00:54:20;;;;;;;11.87;7.80;;;4.40;99.90;;;;;;5075455;28;20527;-68
2021/01/15 00:56:46;;;;;;;10.73;8.30;;;4.50;99.90;;;;;;5075381;28;20594;-68
2021/01/15 00:59:12;;;;;;;13.80;9.40;;;4.40;99.90;;;;;;5075374;28;20632;-67
2021/01/15 01:01:39;;;;;;;10.60;8.30;;;4.40;99.90;;;;;;5075545;28;20561;-68
2021/01/15 01:04:05;;;;;;;12.53;8.80;;;4.40;99.90;;;;;;5075234;28;20224;-68
2021/01/15 01:06:31;;;;;;;11.50;8.00;;;4.40;99.90;;;;;;5075144;28;20422;-68
2021/01/15 01:09:00;;;;;;;11.23;8.00;;;4.40;99.90;;;;;;5075054;28;20471;-68
2021/01/15 01:11:26;;;;;;;11.33;8.27;;;4.40;99.90;;;;;;5075111;28;20427;-69
2021/01/15 01:13:53;;;;;;;16.23;8.63;;;4.40;99.90;;;;;;5075018;28;20429;-68
2021/01/15 01:16:20;;;;;;;13.30;8.03;;;4.40;99.90;;;;;;5074652;28;20181;-68
2021/01/15 01:18:47;;;;;;;12.30;9.60;;;4.40;99.90;;;;;;5074984;28;20783;-68
2021/01/15 01:21:13;;;;;;;14.40;8.67;;;4.40;99.90;;;;;;5074879;28;20443;-68
2021/01/15 01:23:39;;;;;;;11.33;8.83;;;4.40;99.90;;;;;;5074940;28;20782;-70
2021/01/15 01:26:05;;;;;;;14.17;8.63;;;4.40;99.90;;;;;;5074818;28;20422;-68
2021/01/15 01:28:31;;;;;;;12.93;8.37;;;4.40;99.90;;;;;;5074675;28;20459;-68
2021/01/15 01:30:56;;;;;;;11.03;8.37;;;4.40;99.90;;;;;;5074324;28;20234;-69
2021/01/15 01:33:22;;;;;;;13.27;9.40;;;4.40;99.90;;;;;;5074568;28;20621;-69
2021/01/15 01:35:48;;;;;;;12.20;8.90;;;4.40;99.90;;;;;;5074604;28;20308;-68
2021/01/15 01:38:14;;;;;;;16.23;10.17;;;4.30;99.90;;;;;;5074503;28;20541;-68
2021/01/15 01:40:40;;;;;;;15.10;9.93;;;4.40;99.90;;;;;;5074476;28;20508;-68
2021/01/15 01:43:06;;;;;;;14.10;9.63;;;4.30;99.90;;;;;;5074217;28;20208;-68
2021/01/15 01:45:31;;;;;;;12.30;8.03;;;4.30;99.90;;;;;;5074370;28;20453;-68
2021/01/15 01:47:59;;;;;;;13.80;8.83;;;4.30;99.90;;;;;;5074303;28;20645;-68
2021/01/15 01:50:25;;;;;;;11.17;8.80;;;4.30;99.90;;;;;;5074830;28;20185;-69
2021/01/15 01:52:51;;;;;;;12.43;9.20;;;4.30;99.90;;;;;;5073534;28;20438;-68
2021/01/15 01:55:18;;;;;;;15.50;9.30;;;4.30;99.90;;;;;;5074220;28;20431;-68
2021/01/15 01:57:44;;;;;;;12.10;8.80;;;4.30;99.90;;;;;;5074254;28;20178;-68
2021/01/15 02:00:10;;;;;;;12.40;8.73;;;4.30;99.90;;;;;;5076692;28;20999;-68
2021/01/15 02:02:36;;;;;;;14.60;8.60;;;4.30;99.90;;;;;;5074221;28;20430;-68
2021/01/15 02:05:03;;;;;;;14.70;9.77;;;4.30;99.90;;;;;;5073844;28;20570;-68
2021/01/15 02:07:29;;;;;;;30.23;10.40;;;4.30;99.90;;;;;;5074160;28;20209;-68
2021/01/15 02:10:37;;;;;;;11.60;8.93;;;4.30;99.90;;;;;;5073949;28;20447;-68
2021/01/15 02:13:21;;;;;;;14.37;10.70;;;4.30;99.90;;;;;;5031766;28;20592;-67
2021/01/15 02:15:51;;;;;;;15.40;9.77;;;4.20;99.90;;;;;;5031680;28;20550;-68
2021/01/15 02:18:29;;;;;;;14.33;9.63;;;4.20;99.90;;;;;;5057992;28;20432;-69
2021/01/15 02:21:00;;;;;;;14.00;9.27;;;4.20;99.90;;;;;;5073866;28;20419;-69
2021/01/15 02:23:34;;;;;;;18.67;11.43;;;4.20;99.90;;;;;;5073721;28;20462;-69
2021/01/15 06:31:50;;;;;;;25.50;16.73;;;3.70;99.90;;;;;;5598165;22;20439;-67
2021/01/15 06:34:17;;;;;;;30.90;18.90;;;3.70;99.90;;;;;;5072559;28;20539;-67
2021/01/15 06:36:48;;;;;;;32.70;21.47;;;3.70;99.90;;;;;;5072654;28;20435;-69
2021/01/15 06:39:16;;;;;;;38.13;20.50;;;3.70;99.90;;;;;;5053115;28;20438;-67
2021/01/15 06:41:41;;;;;;;32.10;20.40;;;3.60;99.90;;;;;;5053368;28;20428;-67
2021/01/15 06:44:09;;;;;;;32.77;20.07;;;3.70;99.90;;;;;;5072487;28;20760;-67
2021/01/15 06:46:45;;;;;;;30.27;19.27;;;3.70;99.90;;;;;;5072564;28;20182;-68
2021/01/15 06:49:16;;;;;;;34.77;19.70;;;3.60;99.90;;;;;;5072334;28;20483;-68
2021/01/15 06:51:56;;;;;;;33.13;18.77;;;3.70;99.90;;;;;;5072460;28;20457;-68
2021/01/15 06:54:33;;;;;;;36.13;19.47;;;3.70;99.90;;;;;;5072320;28;20995;-65
2021/01/15 06:57:29;;;;;;;32.38;22.00;;;3.70;99.90;;;;;;5071593;28;20456;-64
2021/01/15 06:59:57;;;;;;;27.03;16.67;;;3.70;99.90;;;;;;5071571;28;20563;-64
2021/01/15 07:02:38;;;;;;;39.80;21.10;;;3.80;99.90;;;;;;5072442;28;20495;-64
2021/01/15 07:05:04;;;;;;;31.20;18.90;;;3.80;99.90;;;;;;5052971;28;20801;-64
2021/01/15 07:07:31;;;;;;;29.77;18.43;;;3.80;99.90;;;;;;5052965;28;20921;-65
2021/01/15 07:10:00;;;;;;;34.83;18.77;;;3.80;99.90;;;;;;5055717;28;20440;-69
2021/01/15 07:12:26;;;;;;;29.80;19.40;;;3.80;99.90;;;;;;5065176;28;20470;-69
2021/01/15 07:14:58;;;;;;;33.43;19.43;;;3.80;99.90;;;;;;5076351;28;20459;-69
2021/01/15 07:17:37;;;;;;;29.93;17.40;;;3.80;99.90;;;;;;5067542;28;20472;-69
2021/01/15 07:20:04;;;;;;;29.80;18.43;;;3.70;99.90;;;;;;5068596;28;20494;-69
2021/01/15 07:22:36;;;;;;;30.53;17.03;;;3.70;99.90;;;;;;5062294;28;20435;-68
2021/01/15 07:25:05;;;;;;;29.17;18.40;;;3.70;99.90;;;;;;5060043;28;20440;-69
2021/01/15 07:27:30;;;;;;;35.90;19.53;;;3.70;99.90;;;;;;5070234;28;20508;-69
2021/01/15 07:29:56;;;;;;;30.97;18.50;;;3.70;99.90;;;;;;5074333;28;20447;-69
2021/01/15 07:32:25;;;;;;;30.97;16.87;;;3.70;99.90;;;;;;5052613;28;20254;-72
2021/01/15 07:34:55;;;;;;;33.60;19.03;;;3.70;99.90;;;;;;5059240;28;20450;-69
2021/01/15 07:37:29;;;;;;;31.77;18.23;;;3.80;99.90;;;;;;5070408;28;20432;-71
2021/01/15 07:40:07;;;;;;;26.57;18.17;;;3.80;99.90;;;;;;5058043;28;20427;-69
2021/01/15 07:42:39;;;;;;;31.10;19.80;;;3.80;99.90;;;;;;5058207;28;20441;-69
2021/01/15 07:45:05;;;;;;;26.40;17.90;;;3.80;99.90;;;;;;5068520;28;20437;-69
2021/01/15 07:47:31;;;;;;;29.53;17.10;;;3.90;99.90;;;;;;5055694;28;21001;-68
2021/01/15 07:49:58;;;;;;;29.00;18.63;;;3.90;99.90;;;;;;5053381;28;20481;-69
2021/01/15 07:52:23;;;;;;;29.90;17.30;;;3.90;99.90;;;;;;5058993;28;20175;-69
2021/01/15 07:54:57;;;;;;;28.00;17.13;;;3.90;99.90;;;;;;5083974;28;20496;-69
2021/01/15 07:57:24;;;;;;;24.97;17.97;;;3.90;99.90;;;;;;5070970;28;20178;-69
2021/01/15 07:59:50;;;;;;;30.87;18.57;;;3.90;99.90;;;;;;5066430;28;20905;-68
2021/01/15 08:02:17;;;;;;;34.67;18.73;;;3.90;99.90;;;;;;5062628;28;20534;-68
2021/01/15 08:04:42;;;;;;;31.97;19.43;;;3.90;99.90;;;;;;5077758;28;20193;-69
2021/01/15 08:07:17;;;;;;;28.93;17.77;;;3.90;99.90;;;;;;5075645;28;20430;-65
2021/01/15 08:09:43;;;;;;;32.00;22.65;;;3.90;99.90;;;;;;5071951;28;20424;-66
2021/01/15 08:12:09;;;;;;;36.00;20.93;;;4.00;99.90;;;;;;5055827;28;20190;-66
2021/01/15 08:14:34;;;;;;;25.60;16.97;;;4.00;99.90;;;;;;5067711;28;20445;-66
2021/01/15 08:17:03;;;;;;;31.50;17.53;;;4.10;99.90;;;;;;5074990;28;20432;-66
2021/01/15 08:19:37;;;;;;;31.00;19.17;;;4.10;99.90;;;;;;5075022;28;20182;-66
2021/01/15 08:22:08;;;;;;;30.47;19.17;;;4.20;99.90;;;;;;5074941;28;20515;-66
2021/01/15 08:24:50;;;;;;;28.63;18.63;;;4.10;99.90;;;;;;5075940;28;20439;-66
2021/01/15 08:27:22;;;;;;;29.57;19.00;;;4.10;99.90;;;;;;5055782;28;20781;-65
2021/01/15 08:29:51;;;;;;;33.83;21.27;;;4.00;99.90;;;;;;5060189;28;20942;-65
2021/01/15 08:32:17;;;;;;;31.37;19.80;;;4.00;99.90;;;;;;5055233;28;20581;-65
2021/01/15 08:34:44;;;;;;;34.70;19.53;;;4.00;99.90;;;;;;5055125;28;20585;-65
2021/01/15 08:37:11;;;;;;;33.17;20.33;;;4.00;99.90;;;;;;5055498;28;20200;-65
2021/01/15 08:39:42;;;;;;;37.27;19.90;;;4.00;99.90;;;;;;5055496;28;20427;-66
2021/01/15 08:42:08;;;;;;;33.83;20.60;;;4.00;99.90;;;;;;5055303;28;20447;-66
2021/01/15 08:44:35;;;;;;;31.67;18.60;;;4.10;99.90;;;;;;5067116;28;20444;-66
2021/01/15 08:47:04;;;;;;;41.30;21.60;;;4.00;99.90;;;;;;5074365;28;20182;-65
2021/01/15 08:49:30;;;;;;;33.03;19.97;;;4.00;99.90;;;;;;5074448;28;20511;-66
2021/01/15 08:51:58;;;;;;;29.70;18.90;;;4.00;99.90;;;;;;5074548;28;20458;-66
2021/01/15 08:54:25;;;;;;;31.07;18.53;;;4.00;99.90;;;;;;5074342;28;20186;-66
2021/01/15 08:56:51;;;;;;;37.10;19.90;;;4.00;99.90;;;;;;5074281;28;20457;-66
2021/01/15 08:59:43;;;;;;;26.80;18.33;;;4.00;99.90;;;;;;5074257;28;20432;-66
2021/01/15 09:02:10;;;;;;;31.63;18.43;;;4.00;99.90;;;;;;5071811;28;20491;-66
2021/01/15 09:04:36;;;;;;;32.00;17.20;;;4.10;99.90;;;;;;5054045;28;20445;-66
2021/01/15 09:07:07;;;;;;;31.73;19.30;;;4.10;99.90;;;;;;5054976;28;20423;-66
2021/01/15 09:09:35;;;;;;;31.70;19.73;;;4.10;99.90;;;;;;5067752;28;20199;-66
2021/01/15 09:12:05;;;;;;;29.17;18.70;;;4.10;99.90;;;;;;5074050;28;20789;-66
2021/01/15 09:14:38;;;;;;;26.97;18.00;;;4.10;99.90;;;;;;5065995;28;20442;-66
2021/01/15 09:17:08;;;;;;;31.13;17.67;;;4.20;99.90;;;;;;5074057;28;20441;-66
2021/01/15 09:19:35;;;;;;;27.87;18.50;;;4.10;99.90;;;;;;5073887;28;20794;-66
2021/01/15 09:22:04;;;;;;;27.43;16.23;;;4.10;99.90;;;;;;5073827;28;20442;-66
2021/01/15 09:24:31;;;;;;;27.37;17.00;;;4.10;99.90;;;;;;5072454;28;20516;-66
2021/01/15 09:26:57;;;;;;;21.50;15.97;;;4.20;99.90;;;;;;5073788;28;20490;-67
2021/01/15 09:29:23;;;;;;;28.63;17.93;;;4.20;99.90;;;;;;5073524;28;20481;-66
2021/01/15 09:31:49;;;;;;;28.20;17.87;;;4.20;99.90;;;;;;5073362;28;20792;-66
2021/01/15 09:34:15;;;;;;;26.47;17.33;;;4.20;99.90;;;;;;5073419;28;20184;-66
2021/01/15 09:36:43;;;;;;;27.97;18.37;;;4.20;99.90;;;;;;5073551;28;20956;-67
2021/01/15 09:39:10;;;;;;;33.80;19.43;;;4.20;99.90;;;;;;5073403;28;20436;-66
2021/01/15 09:41:42;;;;;;;32.40;17.37;;;4.20;99.90;;;;;;5073436;28;20438;-66
2021/01/15 09:44:08;;;;;;;30.13;18.17;;;4.20;99.90;;;;;;5073388;28;20772;-66
2021/01/15 09:46:33;;;;;;;25.30;16.97;;;4.20;99.90;;;;;;5073205;28;20454;-66
2021/01/15 09:48:59;;;;;;;30.57;18.73;;;4.20;99.90;;;;;;5073062;28;20214;-66
2021/01/15 09:51:26;;;;;;;33.73;19.00;;;4.30;99.90;;;;;;5053971;28;20193;-66
2021/01/15 09:53:53;;;;;;;28.73;18.47;;;4.30;99.90;;;;;;5066617;28;20200;-66
2021/01/15 09:56:22;;;;;;;34.00;17.80;;;4.30;99.90;;;;;;5080372;28;20842;-66
2021/01/15 09:58:48;;;;;;;30.33;16.90;;;4.30;99.90;;;;;;5062968;28;20954;-67
2021/01/15 10:01:13;;;;;;;31.20;16.30;;;4.30;99.90;;;;;;5053909;28;20426;-67
2021/01/15 10:03:39;;;;;;;31.03;17.97;;;4.40;99.90;;;;;;5053672;28;20522;-67
2021/01/15 10:06:04;;;;;;;30.67;17.83;;;4.40;99.90;;;;;;5061295;28;20541;-67
2021/01/15 10:08:30;;;;;;;31.30;17.60;;;4.40;99.90;;;;;;5073502;28;20277;-67
2021/01/15 10:10:55;;;;;;;28.70;16.27;;;4.40;99.90;;;;;;5075013;28;20188;-67
2021/01/15 10:13:21;;;;;;;30.70;18.30;;;4.50;99.90;;;;;;5057418;28;20196;-67
2021/01/15 10:15:46;;;;;;;30.20;16.50;;;4.50;99.90;;;;;;5072618;28;20269;-67
2021/01/15 10:18:12;;;;;;;25.00;17.00;;;4.40;99.90;;;;;;5072637;28;20197;-67
2021/01/15 10:20:44;;;;;;;27.77;16.30;;;4.50;99.90;;;;;;5072861;28;20206;-67
2021/01/15 10:23:10;;;;;;;24.00;16.03;;;4.50;99.90;;;;;;5071823;28;20222;-67
2021/01/15 10:25:35;;;;;;;27.53;16.10;;;4.50;99.90;;;;;;5071577;28;20923;-67
2021/01/15 10:28:01;;;;;;;28.00;17.43;;;4.50;99.90;;;;;;5071759;28;20489;-67
2021/01/15 10:30:26;;;;;;;23.37;15.20;;;4.50;99.90;;;;;;5071712;28;20275;-67
2021/01/15 10:32:52;;;;;;;25.10;15.37;;;4.50;99.90;;;;;;5071521;28;20237;-67
2021/01/15 10:35:18;;;;;;;27.83;15.17;;;4.50;99.90;;;;;;5069571;28;20212;-66
2021/01/15 10:37:43;;;;;;;22.60;14.00;;;4.60;99.90;;;;;;5066472;28;20272;-66
2021/01/15 10:40:10;;;;;;;25.97;15.10;;;4.60;99.90;;;;;;5052355;28;20520;-66
2021/01/15 10:42:39;;;;;;;27.73;15.93;;;4.60;99.90;;;;;;5052178;28;20626;-66
2021/01/15 10:45:06;;;;;;;24.00;17.30;;;4.60;99.90;;;;;;5067979;28;20463;-67
2021/01/15 10:47:32;;;;;;;23.53;13.40;;;4.70;99.90;;;;;;5068404;28;20486;-69
2021/01/15 10:49:57;;;;;;;19.50;13.67;;;4.70;99.90;;;;;;5069506;28;20447;-68
2021/01/15 10:52:23;;;;;;;34.03;14.87;;;4.70;99.90;;;;;;5071357;28;20181;-71
2021/01/15 10:54:48;;;;;;;23.53;14.90;;;4.70;99.90;;;;;;5060461;28;20277;-69
2021/01/15 10:57:14;;;;;;;27.47;13.63;;;4.80;99.90;;;;;;5054981;28;20188;-69
2021/01/15 10:59:39;;;;;;;22.03;14.60;;;4.70;99.90;;;;;;5061075;28;20188;-69
2021/01/15 11:02:05;;;;;;;21.63;12.90;;;4.80;99.90;;;;;;5060804;28;20211;-69
2021/01/15 11:04:31;;;;;;;21.80;13.83;;;4.80;99.90;;;;;;5061095;28;20208;-70
2021/01/15 11:06:56;;;;;;;23.03;13.13;;;4.80;99.90;;;;;;5069624;28;20517;-71
2021/01/15 11:09:23;;;;;;;22.90;13.30;;;4.80;99.90;;;;;;5060028;28;20210;-64
2021/01/15 11:11:49;;;;;;;24.33;14.23;;;4.80;99.90;;;;;;5067858;28;20181;-81
2021/01/15 11:14:16;;;;;;;20.90;13.37;;;4.80;99.90;;;;;;5071068;28;20961;-80
2021/01/15 11:16:42;;;;;;;19.20;13.27;;;4.90;99.90;;;;;;5072916;28;20428;-79
2021/01/15 11:19:08;;;;;;;19.57;14.70;;;4.90;99.90;;;;;;5073307;28;20441;-81
2021/01/15 11:21:33;;;;;;;25.93;14.50;;;4.90;99.90;;;;;;5072830;28;20526;-78
2021/01/15 11:23:59;;;;;;;21.47;12.13;;;4.90;99.90;;;;;;5075806;28;20185;-81
2021/01/15 11:26:26;;;;;;;20.70;10.70;;;4.90;99.90;;;;;;5079975;28;20186;-72
2021/01/15 11:28:53;;;;;;;21.97;12.63;;;5.20;99.90;;;;;;5092168;28;20213;-72
2021/01/15 11:31:18;;;;;;;17.57;11.10;;;6.10;99.90;;;;;;5096880;28;20778;-72
2021/01/15 11:33:44;;;;;;;18.43;12.07;;;6.90;99.90;;;;;;5090347;28;20521;-75
2021/01/15 11:36:10;;;;;;;22.93;9.70;;;7.60;99.90;;;;;;5090551;28;20177;-76
2021/01/15 11:38:36;;;;;;;15.87;10.20;;;8.00;99.90;;;;;;5096661;28;20527;-76
2021/01/15 11:41:02;;;;;;;15.73;10.23;;;8.40;99.90;;;;;;5096607;28;20569;-76
2021/01/15 11:43:32;;;;;;;12.77;10.33;;;8.70;99.90;;;;;;5096419;28;20174;-67
2021/01/15 11:45:58;;;;;;;22.43;12.43;;;8.90;99.90;;;;;;5096479;28;20184;-68
2021/01/15 11:48:23;;;;;;;17.03;11.37;;;8.30;99.90;;;;;;5096298;28;20474;-69
2021/01/15 11:50:49;;;;;;;17.43;11.40;;;7.70;99.90;;;;;;5096529;28;20816;-68
2021/01/15 11:53:14;;;;;;;21.43;13.20;;;7.30;99.90;;;;;;5096362;28;20182;-68
2021/01/15 11:55:40;;;;;;;21.30;13.10;;;6.90;99.90;;;;;;5096441;28;20227;-69
2021/01/15 11:58:05;;;;;;;20.60;12.40;;;6.60;99.90;;;;;;5096422;28;20584;-69
2021/01/15 12:00:31;;;;;;;29.17;12.87;;;6.40;99.90;;;;;;5096031;28;20170;-68
2021/01/15 12:02:58;;;;;;;24.60;11.80;;;6.20;99.90;;;;;;5091255;28;20189;-70
2021/01/15 12:05:23;;;;;;;20.30;13.00;;;6.00;99.90;;;;;;5078281;28;20207;-70
2021/01/15 12:07:49;;;;;;;21.00;13.03;;;5.90;99.90;;;;;;5086016;28;20456;-70
2021/01/15 12:10:15;;;;;;;19.30;12.40;;;5.80;99.90;;;;;;5087172;28;20182;-70
2021/01/15 12:12:40;;;;;;;19.07;13.50;;;5.70;99.90;;;;;;5095983;28;20208;-71
2021/01/15 12:15:08;;;;;;;18.87;11.97;;;5.60;99.90;;;;;;5092404;28;20174;-70
2021/01/15 12:17:34;;;;;;;21.57;12.60;;;5.50;99.90;;;;;;5084123;28;20168;-70
2021/01/15 12:20:00;;;;;;;19.80;12.40;;;5.50;99.90;;;;;;5084536;28;20457;-71
2021/01/15 12:22:26;;;;;;;21.00;13.67;;;5.40;99.90;;;;;;5084229;28;20426;-71
2021/01/15 12:24:51;;;;;;;21.70;13.97;;;5.40;99.90;;;;;;5082913;28;20910;-70
2021/01/15 12:27:17;;;;;;;18.50;12.83;;;5.30;99.90;;;;;;5077914;28;20191;-70
2021/01/15 12:29:43;;;;;;;21.47;14.80;;;5.30;99.90;;;;;;5081538;28;20178;-70
2021/01/15 12:32:08;;;;;;;26.23;13.90;;;5.20;99.90;;;;;;5085510;28;20468;-70
2021/01/15 12:34:34;;;;;;;26.23;12.53;;;5.20;99.90;;;;;;5086879;28;20276;-71
2021/01/15 12:36:59;;;;;;;22.20;14.00;;;5.20;99.90;;;;;;5095242;28;20646;-70
2021/01/15 12:39:25;;;;;;;28.00;14.03;;;5.10;99.90;;;;;;5095336;28;20240;-68
2021/01/15 12:41:51;;;;;;;23.27;13.77;;;5.10;99.90;;;;;;5091697;28;20197;-68
2021/01/15 12:44:16;;;;;;;22.77;15.17;;;5.10;99.90;;;;;;5093597;28;20505;-68
2021/01/15 12:46:42;;;;;;;28.30;15.60;;;5.10;99.90;;;;;;5083710;28;20551;-68
2021/01/15 12:49:07;;;;;;;28.63;14.67;;;5.00;99.90;;;;;;5084472;28;20209;-68
2021/01/15 12:51:33;;;;;;;23.30;14.27;;;5.00;99.90;;;;;;5080138;28;20169;-69
2021/01/15 12:53:59;;;;;;;18.40;14.03;;;5.00;99.90;;;;;;5073825;28;20182;-69
2021/01/15 12:56:24;;;;;;;22.87;14.07;;;5.00;99.90;;;;;;5084265;28;20506;-69
2021/01/15 12:58:50;;;;;;;16.63;11.83;;;5.00;99.90;;;;;;5083701;28;20231;-69
2021/01/15 13:01:15;;;;;;;17.57;12.10;;;5.00;99.90;;;;;;5073145;28;20556;-69
2021/01/15 13:03:41;;;;;;;20.10;11.60;;;5.00;99.90;;;;;;5065642;28;20198;-69
2021/01/15 13:06:07;;;;;;;17.80;11.73;;;5.00;99.90;;;;;;5074544;28;20706;-69
2021/01/15 13:08:32;;;;;;;20.67;13.43;;;5.00;99.90;;;;;;5074419;28;20628;-70
2021/01/15 13:10:58;;;;;;;19.30;13.07;;;4.90;99.90;;;;;;5074258;28;20620;-69
2021/01/15 13:13:24;;;;;;;19.90;12.80;;;4.90;99.90;;;;;;5067151;28;20194;-68
2021/01/15 13:15:49;;;;;;;18.10;10.93;;;4.90;99.90;;;;;;5064640;28;20440;-68
2021/01/15 13:18:15;;;;;;;23.37;14.43;;;4.90;99.90;;;;;;5073363;28;20174;-68
2021/01/15 13:20:41;;;;;;;19.53;12.00;;;4.90;99.90;;;;;;5074403;28;20188;-68
2021/01/15 13:23:08;;;;;;;18.50;12.40;;;4.90;99.90;;;;;;5074050;28;20227;-68
2021/01/15 13:25:35;;;;;;;25.13;12.90;;;4.90;99.90;;;;;;5074267;28;20205;-68
2021/01/15 13:28:03;;;;;;;20.30;12.63;;;4.90;99.90;;;;;;5073850;28;20616;-68
2021/01/15 13:30:29;;;;;;;18.17;11.83;;;4.90;99.90;;;;;;5072613;28;20435;-68
2021/01/15 13:32:55;;;;;;;18.07;12.70;;;4.90;99.90;;;;;;5073772;28;20472;-68
2021/01/15 13:35:20;;;;;;;23.30;13.57;;;4.90;99.90;;;;;;5073993;28;20428;-68
2021/01/15 13:37:47;;;;;;;21.77;13.33;;;4.90;99.90;;;;;;5075222;28;20176;-70
2021/01/15 13:40:13;;;;;;;19.37;12.80;;;4.90;99.90;;;;;;5079968;28;20682;-69
2021/01/15 13:42:39;;;;;;;22.63;13.47;;;4.90;99.90;;;;;;5082527;28;20416;-70
2021/01/15 13:45:07;;;;;;;18.27;12.97;;;4.90;99.90;;;;;;5074642;28;20656;-70
2021/01/15 13:47:36;;;;;;;22.03;12.37;;;4.90;99.90;;;;;;5067588;28;20467;-69
2021/01/15 13:50:12;;;;;;;23.10;13.40;;;4.90;99.90;;;;;;5078832;28;20429;-70
2021/01/15 13:52:39;;;;;;;20.83;13.17;;;4.90;99.90;;;;;;5073513;28;20535;-70
2021/01/15 13:55:05;;;;;;;25.60;13.80;;;4.80;99.90;;;;;;5073614;28;20441;-70
2021/01/15 13:57:30;;;;;;;24.43;15.13;;;4.80;99.90;;;;;;5073384;28;20757;-70
2021/01/15 13:59:56;;;;;;;24.03;14.73;;;4.80;99.90;;;;;;5073400;28;20440;-69
2021/01/15 14:02:21;;;;;;;23.57;13.60;;;4.80;99.90;;;;;;5073167;28;20188;-71
2021/01/15 14:04:47;;;;;;;19.07;13.00;;;4.80;99.90;;;;;;5072879;28;20279;-69
2021/01/15 14:07:13;;;;;;;18.10;13.67;;;4.80;99.90;;;;;;5073022;28;20212;-69
2021/01/15 14:09:39;;;;;;;20.80;15.87;;;4.80;99.90;;;;;;5073205;28;20269;-69
2021/01/15 14:12:05;;;;;;;24.83;14.83;;;4.70;99.90;;;;;;5067310;28;20519;-69
2021/01/15 14:14:33;;;;;;;20.50;12.60;;;4.70;99.90;;;;;;5064411;28;20463;-69
2021/01/15 14:17:02;;;;;;;23.87;13.60;;;4.70;99.90;;;;;;5064911;28;20434;-69
2021/01/15 14:19:27;;;;;;;20.60;13.97;;;4.70;99.90;;;;;;5064341;28;20970;-69
2021/01/15 14:21:53;;;;;;;24.50;14.77;;;4.70;99.90;;;;;;5075246;28;20412;-69
2021/01/15 14:24:18;;;;;;;19.67;13.87;;;4.60;99.90;;;;;;5061666;28;20225;-69
2021/01/15 14:26:44;;;;;;;22.27;13.87;;;4.60;99.90;;;;;;5062845;28;20165;-69
2021/01/15 14:29:09;;;;;;;21.50;13.33;;;4.60;99.90;;;;;;5063278;28;20584;-69
2021/01/15 14:31:37;;;;;;;20.57;13.77;;;4.60;99.90;;;;;;5074864;28;20560;-68
2021/01/15 14:34:03;;;;;;;21.90;13.50;;;4.60;99.90;;;;;;5078689;28;20194;-69
2021/01/15 14:36:37;;;;;;;21.77;14.00;;;4.60;99.90;;;;;;5083259;28;20989;-69
2021/01/15 14:39:02;;;;;;;21.43;13.73;;;4.60;99.90;;;;;;5083611;28;20173;-69
2021/01/15 14:41:39;;;;;;;18.97;12.70;;;4.60;99.90;;;;;;5081941;28;20783;-70
2021/01/15 14:44:05;;;;;;;23.20;13.90;;;4.60;99.90;;;;;;5081293;28;20173;-70
2021/01/15 14:46:34;;;;;;;19.83;12.37;;;4.60;99.90;;;;;;5082626;28;20437;-70
2021/01/15 14:49:00;;;;;;;21.30;13.93;;;4.60;99.90;;;;;;5083298;28;20212;-70
2021/01/15 14:51:37;;;;;;;24.90;11.43;;;4.50;99.90;;;;;;5081017;28;20418;-70
2021/01/15 14:54:04;;;;;;;19.00;12.23;;;4.60;99.90;;;;;;5075633;28;20187;-70
2021/01/15 14:56:31;;;;;;;20.83;12.10;;;4.60;99.90;;;;;;5082478;28;20435;-70
2021/01/15 14:58:57;;;;;;;20.10;12.93;;;4.60;99.90;;;;;;5084118;28;20450;-70
2021/01/15 15:01:22;;;;;;;23.80;12.00;;;4.60;99.90;;;;;;5088392;28;20439;-70
2021/01/15 15:03:48;;;;;;;19.53;12.77;;;4.60;99.90;;;;;;5084236;28;20174;-70
2021/01/15 15:06:27;;;;;;;19.47;12.70;;;4.60;99.90;;;;;;5090924;28;20583;-70
2021/01/15 15:08:55;;;;;;;17.70;10.70;;;4.60;99.90;;;;;;5090647;28;20563;-70
2021/01/15 15:11:25;;;;;;;21.70;13.00;;;4.60;99.90;;;;;;5081470;28;20428;-71
2021/01/15 15:13:55;;;;;;;17.90;12.20;;;4.60;99.90;;;;;;5090723;28;20439;-70
2021/01/15 15:16:22;;;;;;;21.03;12.37;;;4.60;99.90;;;;;;5086055;28;20505;-70
2021/01/15 15:18:48;;;;;;;19.73;12.77;;;4.60;99.90;;;;;;5087474;28;20430;-70
2021/01/15 15:21:14;;;;;;;17.03;11.73;;;4.60;99.90;;;;;;5093745;28;20423;-70
2021/01/15 15:23:40;;;;;;;18.73;11.30;;;4.60;99.90;;;;;;5076633;28;20428;-69
2021/01/15 15:26:06;;;;;;;16.85;11.15;;;4.60;99.90;;;;;;5075992;28;20359;-71
2021/01/15 15:28:34;;;;;;;17.60;11.07;;;4.60;99.90;;;;;;5075769;28;20213;-70
2021/01/15 15:31:00;;;;;;;14.93;10.70;;;4.50;99.90;;;;;;5076422;28;20246;-70
2021/01/15 15:33:34;;;;;;;20.30;11.70;;;4.50;99.90;;;;;;5075674;28;20829;-69
2021/01/15 15:35:59;;;;;;;16.17;11.30;;;4.50;99.90;;;;;;5067637;28;20435;-69
2021/01/15 15:38:25;;;;;;;19.30;12.37;;;4.50;99.90;;;;;;5075294;28;20435;-69
2021/01/15 15:40:56;;;;;;;14.77;10.20;;;4.50;99.90;;;;;;5075544;28;20181;-68
2021/01/15 15:43:25;;;;;;;20.87;11.00;;;4.50;99.90;;;;;;5057847;28;20979;-69
2021/01/15 15:45:51;;;;;;;15.60;10.80;;;4.50;99.90;;;;;;5055782;28;20471;-69
2021/01/15 15:48:17;;;;;;;17.37;10.97;;;4.50;99.90;;;;;;5055804;28;20503;-69
2021/01/15 15:50:44;;;;;;;21.17;10.93;;;4.50;99.90;;;;;;5056022;28;20495;-70
2021/01/15 15:53:10;;;;;;;16.60;10.53;;;4.50;99.90;;;;;;5055741;28;20457;-70
2021/01/15 15:55:35;;;;;;;17.97;11.20;;;4.50;99.90;;;;;;5055867;28;20428;-69
2021/01/15 15:58:01;;;;;;;12.00;10.23;;;4.50;99.90;;;;;;5055877;28;20180;-69
2021/01/15 16:00:27;;;;;;;13.43;9.40;;;4.50;99.90;;;;;;5055990;28;20173;-68
2021/01/15 16:02:59;;;;;;;14.70;11.30;;;4.50;99.90;;;;;;5055409;28;20235;-69
2021/01/15 16:05:25;;;;;;;16.73;10.50;;;4.50;99.90;;;;;;5057427;28;20435;-68
2021/01/15 16:07:54;;;;;;;13.70;8.97;;;4.50;99.90;;;;;;5075576;28;20970;-69
2021/01/15 16:10:20;;;;;;;12.13;8.60;;;4.50;99.90;;;;;;5075774;28;20435;-69
2021/01/15 16:12:46;;;;;;;11.47;8.27;;;4.40;99.90;;;;;;5069413;28;20416;-68
2021/01/15 16:15:12;;;;;;;12.47;8.20;;;4.50;99.90;;;;;;5058333;28;20440;-68
2021/01/15 16:17:39;;;;;;;11.37;8.60;;;4.40;99.90;;;;;;5055692;28;20429;-69
2021/01/15 16:20:10;;;;;;;12.33;7.97;;;4.40;99.90;;;;;;5063145;28;20266;-68
2021/01/15 16:22:36;;;;;;;15.40;8.70;;;4.40;99.90;;;;;;5072879;28;20431;-69
2021/01/15 16:25:09;;;;;;;13.53;9.03;;;4.40;99.90;;;;;;5055499;28;20427;-68
2021/01/15 16:27:35;;;;;;;12.43;8.30;;;4.30;99.90;;;;;;5064763;28;20505;-68
2021/01/15 16:30:03;;;;;;;11.67;8.80;;;4.30;99.90;;;;;;5075481;28;20466;-68
2021/01/15 16:32:33;;;;;;;10.53;8.60;;;4.40;99.90;;;;;;5075011;28;20464;-71
2021/01/15 16:34:59;;;;;;;16.03;8.57;;;4.30;99.90;;;;;;5075382;28;20481;-71
2021/01/15 16:37:25;;;;;;;19.77;10.00;;;4.40;99.90;;;;;;5075325;28;20415;-70
2021/01/15 16:39:52;;;;;;;12.03;7.93;;;4.30;99.90;;;;;;5075328;28;20435;-70
2021/01/15 16:42:18;;;;;;;15.80;8.90;;;4.30;99.90;;;;;;5075212;28;20510;-70
2021/01/15 16:44:43;;;;;;;12.80;9.17;;;4.30;99.90;;;;;;5075235;28;20881;-71
2021/01/15 16:47:09;;;;;;;17.40;9.67;;;4.30;99.90;;;;;;5075127;28;20179;-70
2021/01/15 16:49:34;;;;;;;13.90;8.63;;;4.20;99.90;;;;;;5075027;28;20274;-70